Time;durP1;ratioP1;P1;durP2;ratioP2;P2;SDS_P1;SDS_P2;PMS_P1;PMS_P2;Temp;Humidity;BMP_temperature;BMP_pressure;BME280_temperature;BME280_humidity;BME280_pressure;Samples;Min_cycle;Max_cycle;Signal;HPM_P1;HPM_P2
2022/04/08 00:02:07;;;;;;;11.10;1.55;;;;;;;5.08;100.00;99599.72;5102665;28;20051;-28
2022/04/08 00:04:36;;;;;;;11.90;1.58;;;;;;;5.09;100.00;99599.41;5113665;28;20044;-32
2022/04/08 00:07:04;;;;;;;11.52;1.73;;;;;;;5.15;100.00;99602.97;5113291;28;20043;-26
2022/04/08 00:09:32;;;;;;;11.45;1.52;;;;;;;5.20;100.00;99592.63;5114124;28;20040;-30
2022/04/08 00:12:00;;;;;;;15.77;1.63;;;;;;;5.27;100.00;99603.34;5113669;28;20138;-24
2022/04/08 00:14:28;;;;;;;13.48;2.17;;;;;;;5.34;100.00;99609.38;5113484;28;20071;-27
2022/04/08 00:16:56;;;;;;;16.67;2.13;;;;;;;5.44;100.00;99611.16;5113551;28;20039;-29
2022/04/08 00:19:24;;;;;;;18.13;2.65;;;;;;;5.47;100.00;99611.41;5112943;28;20043;-35
2022/04/08 00:21:53;;;;;;;17.50;1.80;;;;;;;5.48;100.00;99612.22;5113778;28;20047;-28
2022/04/08 00:24:21;;;;;;;14.63;2.20;;;;;;;5.48;100.00;99621.34;5112415;28;20043;-27
2022/04/08 00:26:53;;;;;;;12.50;2.08;;;;;;;5.49;100.00;99614.69;5111386;28;20054;-26
2022/04/08 00:29:21;;;;;;;13.68;1.83;;;;;;;5.50;100.00;99615.53;5109788;28;20472;-28
2022/04/08 00:31:50;;;;;;;12.55;1.63;;;;;;;5.50;100.00;99632.13;5111527;28;20060;-26
2022/04/08 00:34:18;;;;;;;17.45;1.48;;;;;;;5.53;100.00;99623.22;5110972;28;20052;-27
2022/04/08 00:36:45;;;;;;;17.60;2.17;;;;;;;5.57;100.00;99623.47;5111629;28;20405;-31
2022/04/08 00:39:14;;;;;;;9.95;1.65;;;;;;;5.61;100.00;99622.56;5111403;27;20074;-28
2022/04/08 00:41:42;;;;;;;11.43;1.95;;;;;;;5.63;100.00;99631.38;5112540;28;20047;-27
2022/04/08 00:44:10;;;;;;;14.57;2.50;;;;;;;5.63;100.00;99625.84;5113124;28;20050;-26
2022/04/08 00:46:38;;;;;;;15.38;2.20;;;;;;;5.64;100.00;99635.81;5112835;28;20043;-30
2022/04/08 00:49:06;;;;;;;14.95;2.00;;;;;;;5.66;100.00;99636.34;5112000;28;20043;-24
2022/04/08 00:51:35;;;;;;;16.58;1.98;;;;;;;5.68;100.00;99645.16;5113502;28;20044;-26
2022/04/08 00:54:03;;;;;;;10.13;1.92;;;;;;;5.70;100.00;99656.75;5112068;28;20096;-25
2022/04/08 00:56:32;;;;;;;18.27;2.65;;;;;;;5.71;100.00;99644.56;5112440;28;20040;-31
2022/04/08 00:59:00;;;;;;;16.10;3.03;;;;;;;5.72;100.00;99656.47;5112954;27;20044;-32
2022/04/08 01:01:28;;;;;;;18.33;2.40;;;;;;;5.69;100.00;99663.41;5112161;28;20452;-24
2022/04/08 01:03:57;;;;;;;16.10;1.98;;;;;;;5.66;100.00;99654.88;5113187;28;20044;-30
2022/04/08 01:06:26;;;;;;;15.82;2.90;;;;;;;5.66;100.00;99666.78;5111625;28;20134;-24
2022/04/08 01:08:54;;;;;;;19.77;2.50;;;;;;;5.67;100.00;99657.34;5108272;28;20113;-30
2022/04/08 01:11:22;;;;;;;11.45;1.75;;;;;;;5.70;100.00;99665.06;5113438;28;20093;-28
2022/04/08 01:13:52;;;;;;;17.35;2.70;;;;;;;5.74;100.00;99670.84;5112787;28;20471;-26
2022/04/08 01:16:20;;;;;;;19.60;2.08;;;;;;;5.77;100.00;99673.84;5112181;28;20047;-26
2022/04/08 01:18:48;;;;;;;12.88;1.95;;;;;;;5.77;100.00;99662.78;5112766;28;20051;-23
2022/04/08 01:21:16;;;;;;;10.80;1.90;;;;;;;5.79;100.00;99676.31;5112474;28;20054;-29
2022/04/08 01:23:48;;;;;;;12.73;1.77;;;;;;;5.79;100.00;99699.28;5112218;28;20047;-29
2022/04/08 01:26:17;;;;;;;10.60;1.90;;;;;;;5.76;100.00;99697.09;5112645;28;20048;-31
2022/04/08 01:28:46;;;;;;;13.15;2.00;;;;;;;5.68;100.00;99692.22;5112312;28;20044;-28
2022/04/08 01:31:15;;;;;;;13.60;1.90;;;;;;;5.62;100.00;99701.69;5111888;28;20051;-26
2022/04/08 01:33:43;;;;;;;11.77;1.77;;;;;;;5.56;100.00;99696.53;5105473;28;20051;-31
2022/04/08 01:36:11;;;;;;;12.38;1.42;;;;;;;5.52;100.00;99691.56;5112051;28;20044;-29
2022/04/08 01:38:39;;;;;;;8.95;1.88;;;;;;;5.49;100.00;99692.16;5111478;28;20064;-29
2022/04/08 01:41:06;;;;;;;8.43;1.20;;;;;;;5.49;100.00;99705.16;5112290;28;20036;-23
2022/04/08 01:43:36;;;;;;;10.32;1.40;;;;;;;5.45;100.00;99702.16;5111152;28;20050;-24
2022/04/08 01:46:04;;;;;;;9.65;1.27;;;;;;;5.43;100.00;99706.34;5111849;28;20040;-29
2022/04/08 01:48:31;;;;;;;10.95;1.17;;;;;;;5.43;100.00;99709.94;5112330;28;20043;-24
2022/04/08 01:50:59;;;;;;;7.05;0.90;;;;;;;5.42;100.00;99718.50;5111109;27;20043;-31
2022/04/08 01:53:27;;;;;;;9.63;1.48;;;;;;;5.43;100.00;99722.94;5112461;28;20051;-27
2022/04/08 01:55:55;;;;;;;6.03;1.10;;;;;;;5.42;100.00;99727.66;5100757;28;20067;-25
2022/04/08 01:58:22;;;;;;;10.48;1.63;;;;;;;5.41;100.00;99731.53;5111182;28;20378;-28
2022/04/08 02:00:52;;;;;;;8.32;1.48;;;;;;;5.40;100.00;99729.03;5111853;28;20059;-28
2022/04/08 02:03:20;;;;;;;8.45;1.02;;;;;;;5.38;100.00;99731.31;5111701;28;20472;-32
2022/04/08 02:05:48;;;;;;;9.20;1.92;;;;;;;5.36;100.00;99739.91;5106979;28;20097;-30
2022/04/08 02:08:16;;;;;;;5.03;1.10;;;;;;;5.35;100.00;99740.19;5112019;28;20048;-26
2022/04/08 02:10:43;;;;;;;6.72;0.98;;;;;;;5.34;100.00;99739.38;5111265;28;20046;-27
2022/04/08 02:13:11;;;;;;;6.22;1.20;;;;;;;5.35;100.00;99741.00;5111202;28;20052;-27
2022/04/08 02:15:39;;;;;;;6.47;0.90;;;;;;;5.35;100.00;99737.44;5111135;28;20075;-31
2022/04/08 02:18:08;;;;;;;5.13;1.10;;;;;;;5.33;100.00;99742.41;5111135;28;20138;-25
2022/04/08 02:20:36;;;;;;;6.00;1.15;;;;;;;5.33;100.00;99737.72;5111029;28;20131;-30
2022/04/08 02:23:04;;;;;;;7.85;0.85;;;;;;;5.34;100.00;99744.91;5111456;28;20075;-25
2022/04/08 02:25:33;;;;;;;8.23;0.95;;;;;;;5.36;100.00;99750.13;5111003;28;20526;-28
2022/04/08 02:28:02;;;;;;;7.88;1.02;;;;;;;5.36;100.00;99750.13;5110715;28;20071;-32
2022/04/08 02:30:30;;;;;;;7.45;1.00;;;;;;;5.37;100.00;99740.72;5111123;28;20474;-30
2022/04/08 02:33:01;;;;;;;8.02;1.40;;;;;;;5.36;100.00;99748.19;5110628;28;20099;-28
2022/04/08 02:35:31;;;;;;;9.52;1.33;;;;;;;5.40;100.00;99756.72;5111372;28;20063;-25
2022/04/08 02:37:59;;;;;;;13.30;1.80;;;;;;;5.45;100.00;99751.13;5111623;28;20062;-25
2022/04/08 02:40:27;;;;;;;9.68;1.38;;;;;;;5.46;100.00;99747.25;5110337;28;20051;-33
2022/04/08 02:42:54;;;;;;;8.15;1.27;;;;;;;5.47;100.00;99746.97;5111480;28;20046;-27
2022/04/08 02:45:22;;;;;;;12.35;1.70;;;;;;;5.47;100.00;99752.50;5110895;28;20134;-26
2022/04/08 02:47:50;;;;;;;17.63;2.05;;;;;;;5.45;100.00;99746.44;5110285;28;20055;-27
2022/04/08 02:50:17;;;;;;;6.97;1.27;;;;;;;5.46;100.00;99750.03;5111418;28;20071;-29
2022/04/08 02:52:47;;;;;;;8.45;1.60;;;;;;;5.45;100.00;99756.66;5110602;28;20063;-30
2022/04/08 02:55:14;;;;;;;9.93;1.67;;;;;;;5.45;100.00;99759.44;5110273;28;20500;-28
2022/04/08 02:57:46;;;;;;;10.13;1.40;;;;;;;5.48;100.00;99754.16;5110708;28;20069;-24
2022/04/08 03:00:16;;;;;;;8.40;1.35;;;;;;;5.52;100.00;99757.16;5111037;28;20123;-23
2022/04/08 03:02:43;;;;;;;13.77;2.50;;;;;;;5.55;100.00;99756.56;5110252;28;20496;-27
2022/04/08 03:05:12;;;;;;;11.38;1.98;;;;;;;5.58;100.00;99756.00;5111090;28;20415;-28
2022/04/08 03:07:40;;;;;;;8.02;1.75;;;;;;;5.60;100.00;99759.25;5109847;28;20043;-32
2022/04/08 03:10:10;;;;;;;10.60;1.85;;;;;;;5.63;100.00;99764.22;5110185;28;20501;-30
2022/04/08 03:12:38;;;;;;;9.40;1.92;;;;;;;5.65;100.00;99769.47;5110914;28;20534;-32
2022/04/08 03:15:08;;;;;;;10.07;2.00;;;;;;;5.68;100.00;99768.88;5109962;28;20053;-28
2022/04/08 03:17:37;;;;;;;9.38;1.70;;;;;;;5.69;100.00;99765.81;5114999;28;20051;-27
2022/04/08 03:20:05;;;;;;;15.68;1.67;;;;;;;5.72;100.00;99769.94;5114945;28;20047;-27
2022/04/08 03:22:33;;;;;;;14.05;1.70;;;;;;;5.73;100.00;99771.59;5114069;28;20136;-24
2022/04/08 03:25:01;;;;;;;8.30;1.80;;;;;;;5.74;100.00;99771.31;5115030;28;20058;-24
2022/04/08 03:27:30;;;;;;;13.00;1.75;;;;;;;5.74;100.00;99771.31;5107741;28;20065;-28
2022/04/08 03:29:58;;;;;;;9.52;1.90;;;;;;;5.74;100.00;99767.72;5114040;28;20059;-31
2022/04/08 03:32:25;;;;;;;13.23;2.13;;;;;;;5.75;100.00;99766.59;5114467;28;20514;-30
2022/04/08 03:34:58;;;;;;;11.85;1.88;;;;;;;5.77;100.00;99761.59;5114222;28;20127;-28
2022/04/08 03:37:26;;;;;;;7.38;1.42;;;;;;;5.76;100.00;99766.31;5112495;28;20043;-30
2022/04/08 03:39:54;;;;;;;10.88;2.15;;;;;;;5.75;100.00;99761.06;5114128;28;20047;-26
2022/04/08 03:42:22;;;;;;;9.73;1.45;;;;;;;5.79;100.00;99762.94;5114331;28;20047;-25
2022/04/08 03:44:51;;;;;;;11.00;1.65;;;;;;;5.79;100.00;99765.72;5114047;28;20043;-26
2022/04/08 03:47:19;;;;;;;10.65;1.67;;;;;;;5.79;100.00;99762.13;5114296;28;20047;-28
2022/04/08 03:49:47;;;;;;;11.55;1.65;;;;;;;5.80;100.00;99761.81;5114037;28;20073;-29
2022/04/08 03:52:15;;;;;;;10.80;2.08;;;;;;;5.87;100.00;99758.69;5113868;28;20050;-32
2022/04/08 03:54:43;;;;;;;13.73;2.22;;;;;;;5.95;100.00;99769.16;5114341;28;20043;-32
2022/04/08 03:57:11;;;;;;;15.13;2.10;;;;;;;5.97;100.00;99763.31;5102424;28;20047;-32
2022/04/08 03:59:41;;;;;;;14.18;2.25;;;;;;;5.97;100.00;99747.53;5112913;28;20424;-28
2022/04/08 04:02:10;;;;;;;10.23;2.50;;;;;;;5.96;100.00;99745.88;5113998;28;20039;-34
2022/04/08 04:04:38;;;;;;;9.98;1.85;;;;;;;5.94;100.00;99733.47;5112631;28;20082;-29
2022/04/08 04:07:06;;;;;;;12.25;2.08;;;;;;;5.88;100.00;99741.81;5114262;28;20040;-30
2022/04/08 04:09:34;;;;;;;14.40;2.10;;;;;;;5.81;100.00;99738.53;5114353;28;20048;-23
2022/04/08 04:12:01;;;;;;;9.88;2.17;;;;;;;5.82;100.00;99740.19;5112987;28;20044;-30
2022/04/08 04:14:29;;;;;;;14.45;2.95;;;;;;;5.79;100.00;99738.03;5113954;28;20058;-27
2022/04/08 04:16:57;;;;;;;14.20;2.10;;;;;;;5.78;100.00;99741.94;5113911;28;20054;-26
2022/04/08 04:19:26;;;;;;;14.52;2.10;;;;;;;5.74;100.00;99738.09;5112265;28;20055;-30
2022/04/08 04:21:54;;;;;;;11.52;2.35;;;;;;;5.73;100.00;99749.47;5114180;28;20051;-30
2022/04/08 04:24:22;;;;;;;14.82;2.83;;;;;;;5.72;100.00;99748.63;5106393;28;20047;-26
2022/04/08 04:26:49;;;;;;;17.67;2.60;;;;;;;5.72;100.00;99756.94;5112299;28;20412;-25
2022/04/08 04:29:18;;;;;;;13.50;1.90;;;;;;;5.77;100.00;99759.66;5112984;28;20039;-29
2022/04/08 04:31:46;;;;;;;12.50;2.10;;;;;;;5.78;100.00;99766.00;5113609;28;20395;-32
2022/04/08 04:34:15;;;;;;;12.90;1.88;;;;;;;5.80;100.00;99760.97;5113134;28;20044;-28
2022/04/08 04:36:44;;;;;;;13.00;2.53;;;;;;;5.79;100.00;99765.72;5113539;28;20102;-31
2022/04/08 04:39:12;;;;;;;11.00;1.98;;;;;;;5.78;100.00;99766.84;5113241;28;20079;-24
2022/04/08 04:41:39;;;;;;;16.80;2.60;;;;;;;5.79;100.00;99779.56;5112729;28;20047;-27
2022/04/08 04:44:07;;;;;;;12.68;2.42;;;;;;;5.81;100.00;99766.22;5113461;28;20122;-25
2022/04/08 04:46:35;;;;;;;18.58;2.45;;;;;;;5.86;100.00;99765.34;5101096;28;20051;-31
2022/04/08 04:49:04;;;;;;;17.05;2.28;;;;;;;5.92;100.00;99771.69;5113189;28;20043;-26
2022/04/08 04:51:32;;;;;;;13.95;2.33;;;;;;;5.90;100.00;99771.97;5112752;28;20044;-28
2022/04/08 04:54:01;;;;;;;14.93;2.63;;;;;;;5.85;100.00;99767.28;5111951;28;20051;-29
2022/04/08 04:56:29;;;;;;;15.23;2.33;;;;;;;5.87;100.00;99764.22;5108617;28;20440;-27
2022/04/08 04:58:56;;;;;;;10.32;2.13;;;;;;;5.88;100.00;99763.09;5112893;28;20066;-29
2022/04/08 05:01:24;;;;;;;11.70;2.35;;;;;;;5.88;100.00;99761.19;5111899;28;20127;-28
2022/04/08 05:03:52;;;;;;;18.48;2.53;;;;;;;5.90;100.00;99765.63;5112889;28;20533;-27
2022/04/08 05:06:20;;;;;;;10.10;2.05;;;;;;;5.89;100.00;99773.09;5112450;27;20438;-27
2022/04/08 05:08:52;;;;;;;18.52;2.72;;;;;;;5.87;100.00;99778.91;5112529;28;20052;-29
2022/04/08 05:11:21;;;;;;;17.40;2.30;;;;;;;5.87;100.00;99776.13;5112804;28;20135;-29
2022/04/08 05:13:49;;;;;;;13.23;2.53;;;;;;;5.89;100.00;99773.09;5110528;28;20047;-25
2022/04/08 05:16:17;;;;;;;12.63;2.38;;;;;;;5.90;100.00;99782.22;5112256;28;20412;-26
2022/04/08 05:18:45;;;;;;;15.13;2.17;;;;;;;5.90;100.00;99787.75;5112719;28;20047;-28
2022/04/08 05:21:13;;;;;;;16.45;2.58;;;;;;;5.91;100.00;99781.13;5112283;28;20433;-26
2022/04/08 05:23:41;;;;;;;14.25;2.25;;;;;;;5.90;100.00;99780.28;5112128;28;20047;-27
2022/04/08 05:26:08;;;;;;;13.57;2.30;;;;;;;5.88;100.00;99777.81;5111216;28;20289;-27
2022/04/08 05:28:37;;;;;;;12.23;2.20;;;;;;;5.87;100.00;99791.91;5111684;28;20062;-25
2022/04/08 05:31:05;;;;;;;12.95;2.50;;;;;;;5.87;100.00;99787.19;5111507;28;20051;-26
2022/04/08 05:33:33;;;;;;;15.95;2.42;;;;;;;5.87;100.00;99800.22;5110568;28;20075;-31
2022/04/08 05:36:01;;;;;;;12.13;2.05;;;;;;;5.87;100.00;99795.50;5104098;28;20044;-28
2022/04/08 05:38:28;;;;;;;11.23;2.00;;;;;;;5.91;100.00;99806.03;5110753;28;20435;-30
2022/04/08 05:40:56;;;;;;;15.68;2.67;;;;;;;5.92;100.00;99804.91;5111566;27;20451;-29
2022/04/08 05:43:24;;;;;;;13.70;2.53;;;;;;;5.92;100.00;99799.38;5110431;28;20581;-31
2022/04/08 05:45:53;;;;;;;11.98;2.50;;;;;;;5.93;100.00;99798.25;5110907;28;20122;-33
2022/04/08 05:48:21;;;;;;;13.90;2.17;;;;;;;5.93;100.00;99792.72;5110624;28;20047;-30
2022/04/08 05:50:48;;;;;;;12.18;2.70;;;;;;;5.93;100.00;99788.00;5110500;28;20481;-28
2022/04/08 05:53:16;;;;;;;15.38;2.55;;;;;;;5.96;100.00;99789.38;5111052;27;20070;-29
2022/04/08 05:56:02;;;;;;;16.13;2.03;;;;;;;5.98;100.00;99787.97;5110875;28;20487;-29
2022/04/08 05:58:30;;;;;;;15.00;2.15;;;;;;;6.02;100.00;99783.44;5110073;28;20047;-26
2022/04/08 06:01:00;;;;;;;20.10;2.60;;;;;;;6.06;100.00;99789.22;5111386;28;20043;-30
2022/04/08 06:03:28;;;;;;;12.15;2.40;;;;;;;6.09;100.00;99783.09;5110409;28;20048;-29
2022/04/08 06:05:55;;;;;;;12.75;2.35;;;;;;;6.13;100.00;99792.47;5110185;28;20314;-28
2022/04/08 06:08:23;;;;;;;13.35;2.35;;;;;;;6.16;100.00;99789.13;5110910;28;20054;-28
2022/04/08 06:10:51;;;;;;;8.57;1.83;;;;;;;6.17;100.00;99786.06;5109604;28;20142;-28
2022/04/08 06:13:24;;;;;;;16.77;2.35;;;;;;;6.18;100.00;99795.19;5110449;28;20050;-27
2022/04/08 06:15:52;;;;;;;11.25;2.40;;;;;;;6.19;100.00;99797.63;5108336;28;20047;-28
2022/04/08 06:18:21;;;;;;;18.65;2.70;;;;;;;6.22;100.00;99790.69;5109800;28;20049;-32
2022/04/08 06:20:49;;;;;;;15.63;2.40;;;;;;;6.22;100.00;99810.91;5110421;28;20070;-27
2022/04/08 06:23:17;;;;;;;15.50;2.30;;;;;;;6.22;100.00;99815.63;5109889;28;20088;-27
2022/04/08 06:25:44;;;;;;;13.73;2.42;;;;;;;6.25;100.00;99812.25;5109665;28;20047;-35
2022/04/08 06:28:12;;;;;;;14.25;2.25;;;;;;;6.31;100.00;99808.31;5110066;28;20031;-28
2022/04/08 06:30:40;;;;;;;14.63;2.17;;;;;;;6.37;100.00;99803.53;5107838;28;20365;-30
2022/04/08 06:33:09;;;;;;;10.98;2.10;;;;;;;6.44;100.00;99806.75;5109495;28;20485;-31
2022/04/08 06:35:38;;;;;;;11.07;2.08;;;;;;;6.48;100.00;99811.41;5109826;28;20428;-26
2022/04/08 06:38:08;;;;;;;15.23;2.38;;;;;;;6.49;100.00;99815.00;5110021;28;20046;-27
2022/04/08 06:40:38;;;;;;;13.27;1.73;;;;;;;6.44;100.00;99804.78;5109288;28;20059;-28
2022/04/08 06:43:07;;;;;;;8.90;1.60;;;;;;;6.44;100.00;99815.88;5110442;28;20046;-29
2022/04/08 06:45:35;;;;;;;9.35;1.77;;;;;;;6.50;100.00;99811.09;5098877;28;20074;-26
2022/04/08 06:48:03;;;;;;;13.95;1.92;;;;;;;6.61;100.00;99806.22;5109159;28;20048;-32
2022/04/08 06:50:33;;;;;;;9.50;2.08;;;;;;;6.75;100.00;99801.59;5108941;28;20047;-27
2022/04/08 06:53:03;;;;;;;9.18;1.90;;;;;;;6.95;100.00;99803.25;5098322;28;20092;-29
2022/04/08 06:55:32;;;;;;;11.20;1.75;;;;;;;7.18;100.00;99799.56;5107943;28;20044;-24
2022/04/08 06:58:01;;;;;;;13.88;2.10;;;;;;;7.53;100.00;99806.44;5111039;28;20051;-28
2022/04/08 07:00:30;;;;;;;11.25;2.00;;;;;;;7.98;100.00;99801.16;5109070;28;20078;-31
2022/04/08 07:02:58;;;;;;;8.90;1.70;;;;;;;8.53;100.00;99793.63;5110924;28;20136;-32
2022/04/08 07:05:26;;;;;;;15.73;2.03;;;;;;;9.08;100.00;99801.81;5110346;28;20105;-26
2022/04/08 07:07:54;;;;;;;7.10;1.55;;;;;;;9.55;100.00;99800.34;5110332;28;20416;-27
2022/04/08 07:10:23;;;;;;;8.70;1.80;;;;;;;10.07;100.00;99793.06;5110721;28;20188;-24
2022/04/08 07:12:51;;;;;;;8.45;1.45;;;;;;;10.61;100.00;99797.34;5110456;28;20497;-30
2022/04/08 07:15:19;;;;;;;7.00;1.42;;;;;;;11.17;98.15;99792.81;5110142;28;20047;-26
2022/04/08 07:17:47;;;;;;;8.60;1.75;;;;;;;11.81;94.40;99792.88;5110675;28;20047;-24
2022/04/08 07:20:17;;;;;;;8.10;1.70;;;;;;;12.45;91.75;99792.75;5110184;28;20039;-25
2022/04/08 07:22:47;;;;;;;7.18;1.30;;;;;;;12.87;84.42;99793.63;5110067;28;20096;-29
2022/04/08 07:25:15;;;;;;;9.68;1.52;;;;;;;13.04;80.67;99787.91;5110783;28;20048;-27
2022/04/08 07:27:46;;;;;;;8.45;1.58;;;;;;;12.97;79.78;99790.44;5110285;28;20071;-36
2022/04/08 07:30:15;;;;;;;12.52;1.65;;;;;;;13.06;79.14;99793.97;5109920;28;20476;-32
2022/04/08 07:32:43;;;;;;;5.85;1.42;;;;;;;13.27;77.45;99793.19;5108781;28;20079;-25
2022/04/08 07:35:11;;;;;;;7.65;1.55;;;;;;;13.63;76.67;99793.31;5109884;28;20086;-32
2022/04/08 07:37:39;;;;;;;7.32;1.67;;;;;;;14.17;74.97;99793.22;5110577;28;20051;-35
2022/04/08 07:40:09;;;;;;;6.50;1.35;;;;;;;14.72;72.51;99798.25;5110263;28;20046;-35
2022/04/08 07:42:37;;;;;;;9.63;2.00;;;;;;;15.17;69.57;99800.03;5110006;28;20469;-27
2022/04/08 07:45:09;;;;;;;7.78;1.80;;;;;;;15.41;67.70;99799.13;5110172;28;20055;-30
2022/04/08 07:47:36;;;;;;;7.03;1.45;;;;;;;15.59;64.42;99794.84;5110569;28;20051;-28
2022/04/08 07:50:09;;;;;;;6.60;1.60;;;;;;;15.61;63.64;99798.13;5109823;28;20054;-27
2022/04/08 07:52:37;;;;;;;;;;;;;;;15.57;56.59;99802.84;5110808;28;20043;-32
2022/04/08 07:55:06;;;;;;;5.97;1.58;;;;;;;15.61;65.43;99792.50;5110585;28;19966;-27
2022/04/08 07:57:34;;;;;;;6.55;1.40;;;;;;;15.94;64.11;99800.66;5106007;28;20584;-32
2022/04/08 08:00:02;;;;;;;9.88;2.42;;;;;;;16.20;63.22;99798.13;5110441;28;20063;-29
2022/04/08 08:02:40;;;;;;;4.53;1.20;;;;;;;16.59;61.29;99792.63;5111818;28;20070;-32
2022/04/08 08:05:10;;;;;;;6.72;1.15;;;;;;;16.90;59.67;99786.16;5113651;28;20047;-28
2022/04/08 08:07:44;;;;;;;6.38;1.23;;;;;;;16.74;57.17;99791.03;5113656;28;20058;-26
2022/04/08 08:10:15;;;;;;;8.85;1.40;;;;;;;16.16;58.49;99794.41;5110355;28;20043;-28
2022/04/08 08:12:43;;;;;;;6.50;1.15;;;;;;;15.54;59.16;99794.28;5113494;28;20040;-33
2022/04/08 08:15:11;;;;;;;5.07;1.10;;;;;;;15.00;61.24;99794.69;5112803;28;20071;-32
2022/04/08 08:17:40;;;;;;;6.43;1.35;;;;;;;14.57;61.51;99779.31;5112964;28;20050;-30
2022/04/08 08:20:10;;;;;;;7.72;1.58;;;;;;;14.19;62.73;99784.44;5113565;27;20057;-29
2022/04/08 08:22:38;;;;;;;7.57;1.60;;;;;;;13.72;64.16;99787.63;5113600;28;20040;-29
2022/04/08 08:25:07;;;;;;;4.97;1.30;;;;;;;13.33;65.82;99789.84;5112794;28;20552;-26
2022/04/08 08:27:39;;;;;;;4.18;1.17;;;;;;;13.10;67.57;99789.34;5114238;28;20058;-30
2022/04/08 08:30:10;;;;;;;7.32;1.45;;;;;;;13.00;68.48;99792.53;5113306;28;20412;-26
2022/04/08 08:32:38;;;;;;;9.20;1.50;;;;;;;13.05;68.34;99791.53;5113088;28;20083;-29
2022/04/08 08:35:09;;;;;;;5.47;1.55;;;;;;;12.94;67.66;99791.13;5113032;28;20065;-26
2022/04/08 08:37:37;;;;;;;7.03;1.40;;;;;;;13.09;68.71;99789.69;5113155;28;20143;-32
2022/04/08 08:40:07;;;;;;;4.72;1.17;;;;;;;13.64;68.54;99797.75;5112646;28;20098;-25
2022/04/08 08:42:36;;;;;;;6.53;1.23;;;;;;;14.29;66.65;99783.97;5113039;28;20064;-26
2022/04/08 08:45:05;;;;;;;6.80;1.33;;;;;;;14.64;64.51;99796.38;5112813;28;20089;-28
2022/04/08 08:47:35;;;;;;;7.78;1.20;;;;;;;14.74;63.97;99783.88;5112337;28;20066;-29
2022/04/08 08:50:04;;;;;;;6.10;1.25;;;;;;;14.58;63.70;99775.34;5113191;28;20471;-26
2022/04/08 08:52:34;;;;;;;4.97;1.08;;;;;;;14.17;63.51;99786.78;5112743;28;20058;-28
2022/04/08 08:55:04;;;;;;;8.63;1.40;;;;;;;13.76;64.63;99785.78;5113071;28;20044;-26
2022/04/08 08:57:34;;;;;;;5.55;1.20;;;;;;;13.40;66.11;99790.06;5112775;28;20139;-33
2022/04/08 09:00:12;;;;;;;4.78;1.55;;;;;;;13.11;67.51;99793.78;5100808;28;20069;-26
2022/04/08 09:02:40;;;;;;;6.22;0.85;;;;;;;12.79;68.04;99794.50;5113067;28;20050;-35
2022/04/08 09:05:15;;;;;;;6.80;1.00;;;;;;;12.49;67.38;99793.72;5112560;28;20088;-30
2022/04/08 09:07:53;;;;;;;3.38;0.90;;;;;;;12.19;66.68;99789.28;5112224;28;20108;-25
2022/04/08 09:10:29;;;;;;;6.00;0.80;;;;;;;11.95;68.90;99798.28;5112636;28;20134;-27
2022/04/08 09:13:00;;;;;;;6.18;0.90;;;;;;;11.78;70.73;99799.16;5112285;28;20067;-26
2022/04/08 09:15:28;;;;;;;6.43;1.20;;;;;;;11.67;71.69;99789.44;5111963;28;20043;-27
2022/04/08 09:18:09;;;;;;;4.05;1.05;;;;;;;11.57;70.67;99800.97;5112453;28;20054;-30
2022/04/08 09:20:41;;;;;;;3.42;0.70;;;;;;;11.50;71.06;99797.84;5112195;28;20047;-26
2022/04/08 09:23:11;;;;;;;5.18;0.88;;;;;;;11.54;70.97;99799.66;5112411;27;20162;-26
2022/04/08 09:25:40;;;;;;;5.20;0.95;;;;;;;11.47;69.99;99798.50;5112380;28;20067;-30
2022/04/08 09:28:11;;;;;;;5.65;0.90;;;;;;;11.42;70.27;99801.47;5111851;28;20047;-31
2022/04/08 09:30:41;;;;;;;4.05;1.17;;;;;;;11.31;70.49;99801.81;5108811;28;20126;-31
2022/04/08 09:33:14;;;;;;;4.63;1.02;;;;;;;11.30;70.07;99799.34;5112156;28;20050;-27
2022/04/08 09:35:43;;;;;;;5.55;0.90;;;;;;;11.43;70.43;99801.13;5110868;28;20184;-29
2022/04/08 09:38:12;;;;;;;6.00;1.00;;;;;;;11.89;70.44;99797.63;5112227;28;20390;-25
2022/04/08 09:40:42;;;;;;;3.80;0.77;;;;;;;12.40;69.02;99787.34;5111913;28;20058;-32
2022/04/08 09:43:10;;;;;;;5.18;0.90;;;;;;;12.90;68.17;99795.75;5111213;28;20044;-24
2022/04/08 09:45:38;;;;;;;8.95;0.95;;;;;;;13.34;66.54;99794.28;5111843;28;20051;-27
2022/04/08 09:48:08;;;;;;;4.18;1.00;;;;;;;13.67;64.55;99801.84;5110122;28;20503;-30
2022/04/08 09:50:39;;;;;;;6.55;0.93;;;;;;;13.85;63.79;99797.69;5111296;28;20063;-26
2022/04/08 09:53:07;;;;;;;3.75;0.90;;;;;;;13.91;62.18;99801.94;5109942;28;20695;-28
2022/04/08 09:55:40;;;;;;;4.78;0.90;;;;;;;14.13;61.89;99797.88;5111947;28;20053;-34
2022/04/08 09:58:11;;;;;;;;;;;;;;;14.37;58.32;99794.28;5111741;28;20108;-26
2022/04/08 10:00:43;;;;;;;3.40;0.70;;;;;;;14.54;61.02;99791.25;5105063;28;20373;-26
2022/04/08 10:03:13;;;;;;;2.85;0.80;;;;;;;14.82;60.45;99794.13;5111414;28;20857;-30
2022/04/08 10:05:41;;;;;;;5.13;0.90;;;;;;;15.18;60.07;99793.25;5111635;28;20059;-35
2022/04/08 10:08:10;;;;;;;3.28;0.80;;;;;;;15.42;58.08;99792.31;5111438;28;20104;-34
2022/04/08 10:10:45;;;;;;;3.75;0.80;;;;;;;15.30;57.07;99793.19;5109722;28;20062;-28
2022/04/08 10:13:31;;;;;;;3.67;0.73;;;;;;;15.17;57.90;99791.63;5111032;28;20463;-35
2022/04/08 10:16:03;;;;;;;5.85;0.80;;;;;;;15.29;59.10;99788.75;5111582;28;20493;-29
2022/04/08 10:18:35;;;;;;;5.95;1.13;;;;;;;15.14;57.95;99789.50;5111063;28;20531;-31
2022/04/08 10:21:03;;;;;;;4.22;1.08;;;;;;;14.97;59.26;99798.22;5111693;28;20122;-27
2022/04/08 10:23:37;;;;;;;4.43;0.90;;;;;;;15.02;59.51;99797.94;5111312;28;20054;-27
2022/04/08 10:26:08;;;;;;;5.28;1.02;;;;;;;14.99;59.09;99796.66;5111321;28;20126;-34
2022/04/08 10:28:37;;;;;;;3.90;0.70;;;;;;;14.58;59.83;99799.81;5111507;28;20047;-29
2022/04/08 10:31:15;;;;;;;3.95;1.00;;;;;;;14.22;61.20;99798.56;5110587;28;20117;-27
2022/04/08 10:33:48;;;;;;;3.38;0.73;;;;;;;13.99;62.79;99798.19;5111040;28;20051;-29
2022/04/08 10:36:17;;;;;;;5.28;1.00;;;;;;;13.73;62.47;99806.09;5111237;28;20047;-30
2022/04/08 10:38:45;;;;;;;4.85;0.90;;;;;;;13.23;63.03;99821.06;5110531;28;20063;-31
2022/04/08 10:41:14;;;;;;;4.40;1.20;;;;;;;12.56;65.87;99824.81;5111088;28;20040;-28
2022/04/08 10:43:49;;;;;;;4.03;0.93;;;;;;;12.01;69.57;99831.28;5111134;28;20039;-30
2022/04/08 10:46:29;;;;;;;4.80;1.65;;;;;;;11.62;72.69;99835.13;5110301;28;20389;-32
2022/04/08 10:48:58;;;;;;;4.05;1.15;;;;;;;11.41;75.00;99850.94;5111034;28;20039;-29
2022/04/08 10:51:30;;;;;;;3.55;1.00;;;;;;;11.16;75.25;99857.34;5110691;28;20040;-30
2022/04/08 10:54:04;;;;;;;5.72;1.00;;;;;;;11.02;77.61;99854.69;5110122;28;20069;-30
2022/04/08 10:56:35;;;;;;;5.47;0.80;;;;;;;10.91;78.60;99848.63;5110954;28;20050;-30
2022/04/08 10:59:04;;;;;;;6.05;1.00;;;;;;;10.82;80.05;99842.19;5099852;28;20047;-28
2022/04/08 11:01:34;;;;;;;2.88;0.70;;;;;;;10.80;79.54;99836.09;5110886;28;20467;-25
2022/04/08 11:04:04;;;;;;;4.50;0.85;;;;;;;10.76;79.36;99829.56;5110902;28;20050;-31
2022/04/08 11:06:33;;;;;;;5.05;1.00;;;;;;;10.74;78.28;99839.41;5109278;28;20369;-29
2022/04/08 11:09:05;;;;;;;5.70;0.93;;;;;;;10.72;77.55;99825.78;5110469;28;20052;-27
2022/04/08 11:11:37;;;;;;;4.80;0.93;;;;;;;10.77;77.66;99825.63;5110184;28;20511;-26
2022/04/08 11:14:06;;;;;;;5.70;1.00;;;;;;;10.80;76.32;99826.91;5110139;28;20109;-28
2022/04/08 11:16:35;;;;;;;5.15;0.77;;;;;;;10.77;75.27;99827.59;5110323;28;20052;-27
2022/04/08 11:19:05;;;;;;;3.35;0.60;;;;;;;10.83;76.11;99829.06;5110296;28;20415;-27
2022/04/08 11:21:35;;;;;;;2.67;0.77;;;;;;;10.95;76.78;99824.50;5110075;28;20044;-31
2022/04/08 11:24:05;;;;;;;5.82;1.00;;;;;;;11.08;76.58;99819.06;5110331;28;20503;-29
2022/04/08 11:26:45;;;;;;;6.43;0.98;;;;;;;11.08;75.67;99825.47;5110781;28;20061;-30
2022/04/08 11:29:16;;;;;;;3.50;0.88;;;;;;;11.10;76.33;99825.16;5110373;28;20048;-33
2022/04/08 11:31:45;;;;;;;3.97;0.80;;;;;;;11.20;75.91;99819.22;5110592;28;20035;-30
2022/04/08 11:34:14;;;;;;;4.97;1.00;;;;;;;11.39;75.29;99823.31;5110006;28;20079;-31
2022/04/08 11:36:42;;;;;;;4.85;0.75;;;;;;;11.66;74.99;99816.56;5110609;28;20047;-30
2022/04/08 11:39:19;;;;;;;3.58;0.90;;;;;;;12.04;74.75;99816.63;5114094;28;20351;-30